Time;durP1;ratioP1;P1;durP2;ratioP2;P2;SDS_P1;SDS_P2;PMS_P1;PMS_P2;Temp;Humidity;BMP_temperature;BMP_pressure;BME280_temperature;BME280_humidity;BME280_pressure;Samples;Min_cycle;Max_cycle;Signal;HPM_P1;HPM_P2
2022/10/21 00:00:18;;;;;;;;;;;13.70;99.90;;;;;;5088097;28;19931;-76
2022/10/21 00:02:44;;;;;;;;;;;13.70;99.90;;;;;;5090414;28;19969;-79
2022/10/21 00:05:10;;;;;;;;;;;13.70;99.90;;;;;;5069399;28;19926;-78
2022/10/21 00:07:36;;;;;;;;;;;13.70;99.90;;;;;;5094343;28;19920;-78
2022/10/21 00:10:02;;;;;;;;;;;13.70;99.90;;;;;;5081428;28;19912;-75
2022/10/21 00:12:28;;;;;;;;;;;13.80;99.90;;;;;;5092733;28;20338;-79
2022/10/21 00:14:54;;;;;;;;;;;13.80;99.90;;;;;;5092830;28;19947;-79
2022/10/21 00:17:19;;;;;;;;;;;13.80;99.90;;;;;;5093799;28;20318;-78
2022/10/21 00:19:45;;;;;;;;;;;13.80;99.90;;;;;;5074117;28;19920;-78
2022/10/21 00:22:11;;;;;;;;;;;13.80;99.90;;;;;;5092115;28;19965;-78
2022/10/21 00:24:37;;;;;;;;;;;13.90;99.90;;;;;;5074720;28;20003;-75
2022/10/21 00:27:02;;;;;;;;;;;13.90;99.90;;;;;;5079283;28;19920;-80
2022/10/21 00:29:28;;;;;;;;;;;14.00;99.90;;;;;;5096650;28;19912;-78
2022/10/21 00:31:54;;;;;;;;;;;14.00;99.90;;;;;;5095693;28;19912;-78
2022/10/21 00:34:20;;;;;;;;;;;14.00;99.90;;;;;;5091680;28;19928;-76
2022/10/21 00:36:46;;;;;;;;;;;14.00;99.90;;;;;;5079169;28;19912;-75
2022/10/21 00:39:12;;;;;;;;;;;14.00;99.90;;;;;;5092251;28;19917;-79
2022/10/21 00:41:37;;;;;;;;;;;14.00;99.90;;;;;;5093078;28;19937;-77
2022/10/21 00:44:05;;;;;;;;;;;14.00;99.90;;;;;;5095448;28;19919;-77
2022/10/21 00:46:36;;;;;;;;;;;14.00;99.90;;;;;;5086913;28;19913;-78
2022/10/21 00:49:06;;;;;;;;;;;14.00;99.90;;;;;;5095886;28;19915;-77
2022/10/21 00:51:31;;;;;;;;;;;14.00;99.90;;;;;;5091068;28;19927;-78
2022/10/21 00:53:57;;;;;;;;;;;14.00;99.90;;;;;;5094172;28;19916;-77
2022/10/21 00:56:25;;;;;;;;;;;14.00;99.90;;;;;;5096354;28;19959;-79
2022/10/21 00:58:53;;;;;;;;;;;13.90;99.90;;;;;;5086731;28;19920;-76
2022/10/21 01:01:18;;;;;;;;;;;14.00;99.90;;;;;;5088497;28;20311;-76
2022/10/21 01:03:44;;;;;;;;;;;14.00;99.90;;;;;;5097493;28;19923;-78
2022/10/21 01:06:11;;;;;;;;;;;14.00;99.90;;;;;;5087080;28;19960;-77
2022/10/21 01:08:37;;;;;;;;;;;14.00;99.90;;;;;;5094289;28;20251;-76
2022/10/21 01:11:04;;;;;;;;;;;14.00;99.90;;;;;;5092924;28;19916;-78
2022/10/21 01:13:35;;;;;;;;;;;14.10;99.90;;;;;;5094685;28;19917;-76
2022/10/21 01:16:02;;;;;;;;;;;14.10;99.90;;;;;;5088562;28;19936;-76
2022/10/21 01:18:27;;;;;;;;;;;14.10;99.90;;;;;;5074381;28;19917;-77
2022/10/21 01:20:56;;;;;;;;;;;14.20;99.90;;;;;;5070219;28;19912;-77
2022/10/21 01:23:45;;;;;;;;;;;14.20;99.90;;;;;;5087941;28;19980;-77
2022/10/21 01:26:11;;;;;;;;;;;14.20;99.90;;;;;;5078667;28;19912;-76
2022/10/21 01:28:43;;;;;;;;;;;14.20;99.90;;;;;;5107529;28;19912;-77
2022/10/21 01:31:12;;;;;;;;;;;14.20;99.90;;;;;;5091188;28;19919;-77
2022/10/21 01:33:42;;;;;;;;;;;14.30;99.90;;;;;;5096465;28;20007;-78
2022/10/21 01:36:14;;;;;;;;;;;14.30;99.90;;;;;;5074592;28;19917;-79
2022/10/21 01:38:48;;;;;;;;;;;14.30;99.90;;;;;;5090461;28;20365;-77
2022/10/21 01:41:14;;;;;;;;;;;14.30;99.90;;;;;;5085922;28;19916;-78
2022/10/21 01:43:39;;;;;;;;;;;14.30;99.90;;;;;;5060959;28;19917;-78
2022/10/21 01:46:14;;;;;;;;;;;14.30;99.90;;;;;;5091192;28;19916;-77
2022/10/21 01:48:43;;;;;;;;;;;14.30;99.90;;;;;;5088112;28;19916;-78
2022/10/21 01:51:09;;;;;;;;;;;14.30;99.90;;;;;;5083111;28;19912;-77
2022/10/21 01:53:43;;;;;;;;;;;14.30;99.90;;;;;;5094726;28;19916;-77
2022/10/21 01:56:10;;;;;;;;;;;14.40;99.90;;;;;;5082579;28;19916;-78
2022/10/21 01:58:38;;;;;;;;;;;14.30;99.90;;;;;;5078340;28;19924;-78
2022/10/21 02:01:05;;;;;;;;;;;14.30;99.90;;;;;;5079740;28;19912;-78
2022/10/21 02:03:33;;;;;;;;;;;14.30;99.90;;;;;;5089093;28;20021;-78
2022/10/21 02:05:59;;;;;;;;;;;14.40;99.90;;;;;;5093499;28;19951;-77
2022/10/21 02:08:25;;;;;;;;;;;14.40;99.90;;;;;;5094327;28;19966;-77
2022/10/21 02:10:51;;;;;;;;;;;14.40;99.90;;;;;;5085159;28;19913;-77
2022/10/21 02:13:23;;;;;;;;;;;14.40;99.90;;;;;;5094563;28;19927;-76
2022/10/21 02:15:50;;;;;;;;;;;14.50;99.90;;;;;;5089564;28;20010;-77
2022/10/21 02:18:20;;;;;;;;;;;14.60;99.90;;;;;;5069872;28;19981;-77
2022/10/21 02:20:47;;;;;;;;;;;14.60;99.90;;;;;;5076980;28;19930;-77
2022/10/21 02:23:16;;;;;;;;;;;14.60;99.90;;;;;;5071569;28;20315;-77
2022/10/21 02:25:43;;;;;;;;;;;14.60;99.90;;;;;;5089971;28;19912;-77
2022/10/21 02:28:10;;;;;;;;;;;14.60;99.90;;;;;;5084032;28;20265;-79
2022/10/21 02:30:44;;;;;;;;;;;14.60;99.90;;;;;;5075031;28;19916;-78
2022/10/21 02:33:16;;;;;;;;;;;14.60;99.90;;;;;;5082464;28;19925;-78
2022/10/21 02:35:54;;;;;;;;;;;14.60;99.90;;;;;;5092117;28;20247;-77
2022/10/21 02:38:26;;;;;;;;;;;14.60;99.90;;;;;;5073118;28;19923;-76
2022/10/21 02:40:58;;;;;;;;;;;14.60;99.90;;;;;;5070994;28;19965;-77
2022/10/21 02:43:26;;;;;;;;;;;14.50;99.90;;;;;;5083602;28;19919;-77
2022/10/21 02:45:53;;;;;;;;;;;14.50;99.90;;;;;;5059870;28;19920;-79
2022/10/21 02:48:19;;;;;;;;;;;14.40;99.90;;;;;;5086780;28;19920;-76
2022/10/21 02:50:44;;;;;;;;;;;14.30;99.90;;;;;;5088537;28;19916;-78
2022/10/21 02:53:11;;;;;;;;;;;14.20;99.90;;;;;;5071216;28;19919;-77
2022/10/21 02:55:37;;;;;;;;;;;14.10;99.90;;;;;;5076647;28;19920;-80
2022/10/21 02:58:03;;;;;;;;;;;14.10;99.90;;;;;;5066390;28;19938;-77
2022/10/21 03:00:29;;;;;;;;;;;14.10;99.90;;;;;;5102303;28;19916;-79
2022/10/21 03:02:54;;;;;;;;;;;14.00;99.90;;;;;;5063526;28;19970;-78
2022/10/21 03:05:20;;;;;;;;;;;13.90;99.90;;;;;;5093956;28;19915;-78
2022/10/21 03:07:45;;;;;;;;;;;14.00;99.90;;;;;;5088237;28;19916;-78
2022/10/21 03:10:11;;;;;;;;;;;14.00;99.90;;;;;;5091668;28;19912;-79
2022/10/21 03:12:36;;;;;;;;;;;14.00;99.90;;;;;;5089195;28;19919;-78
2022/10/21 03:15:02;;;;;;;;;;;13.90;99.90;;;;;;5090385;28;19961;-77
2022/10/21 03:17:28;;;;;;;;;;;13.80;99.90;;;;;;5085865;28;20219;-78
2022/10/21 03:19:53;;;;;;;;;;;13.70;99.90;;;;;;5090136;28;19920;-78
2022/10/21 03:22:19;;;;;;;;;;;13.70;99.90;;;;;;5092367;28;19916;-79
2022/10/21 03:24:45;;;;;;;;;;;13.70;99.90;;;;;;5085481;28;19917;-78
2022/10/21 03:27:10;;;;;;;;;;;13.70;99.90;;;;;;5066388;28;20334;-78
2022/10/21 03:29:36;;;;;;;;;;;13.70;99.90;;;;;;5087771;28;20357;-77
2022/10/21 03:32:01;;;;;;;;;;;13.60;99.90;;;;;;5092435;28;20002;-77
2022/10/21 03:34:27;;;;;;;;;;;13.60;99.90;;;;;;5097907;28;19927;-78
2022/10/21 03:36:52;;;;;;;;;;;13.60;99.90;;;;;;5084703;28;19912;-77
2022/10/21 03:39:18;;;;;;;;;;;13.60;99.90;;;;;;5090990;28;19923;-77
2022/10/21 03:41:44;;;;;;;;;;;13.60;99.90;;;;;;5078277;28;19916;-77
2022/10/21 03:44:09;;;;;;;;;;;13.50;99.90;;;;;;5073952;28;19955;-78
2022/10/21 03:46:35;;;;;;;;;;;13.50;99.90;;;;;;5081759;28;19923;-77
2022/10/21 03:49:00;;;;;;;;;;;13.50;99.90;;;;;;5067642;28;19962;-77
2022/10/21 03:51:26;;;;;;;;;;;13.40;99.90;;;;;;5090789;28;20465;-76
2022/10/21 03:53:52;;;;;;;;;;;13.40;99.90;;;;;;5068724;28;20379;-78
2022/10/21 03:56:17;;;;;;;;;;;13.30;99.90;;;;;;5084942;28;19998;-76
2022/10/21 03:58:43;;;;;;;;;;;13.30;99.90;;;;;;5090523;28;19961;-79
2022/10/21 04:01:12;;;;;;;;;;;13.30;99.90;;;;;;5097119;28;20527;-77
2022/10/21 04:03:38;;;;;;;;;;;13.30;99.90;;;;;;5074215;28;19999;-78
2022/10/21 04:06:03;;;;;;;;;;;13.20;99.90;;;;;;5092356;28;19999;-78
2022/10/21 04:08:29;;;;;;;;;;;13.20;99.90;;;;;;5082005;28;20276;-78
2022/10/21 04:10:57;;;;;;;;;;;13.10;99.90;;;;;;5097080;28;19916;-77
2022/10/21 04:13:23;;;;;;;;;;;13.10;99.90;;;;;;5101217;28;19923;-78
2022/10/21 04:15:49;;;;;;;;;;;13.10;99.90;;;;;;5094702;28;19912;-78
2022/10/21 04:18:14;;;;;;;;;;;13.10;99.90;;;;;;5075915;28;19943;-79
2022/10/21 04:20:40;;;;;;;;;;;13.00;99.90;;;;;;5091345;28;19923;-77
2022/10/21 04:23:05;;;;;;;;;;;13.00;99.90;;;;;;5077636;28;20073;-79
2022/10/21 04:25:31;;;;;;;;;;;13.00;99.90;;;;;;5099160;28;19912;-78
2022/10/21 04:27:56;;;;;;;;;;;13.00;99.90;;;;;;5074311;28;19916;-76
2022/10/21 04:30:22;;;;;;;;;;;12.90;99.90;;;;;;5096483;28;20367;-79
2022/10/21 04:32:49;;;;;;;;;;;12.90;99.90;;;;;;5102442;28;19927;-77
2022/10/21 04:35:15;;;;;;;;;;;12.90;99.90;;;;;;5097645;28;20334;-80
2022/10/21 04:37:42;;;;;;;;;;;12.80;99.90;;;;;;5105940;28;19927;-77
2022/10/21 04:40:08;;;;;;;;;;;12.80;99.90;;;;;;5079832;28;19920;-80
2022/10/21 04:42:33;;;;;;;;;;;12.70;99.90;;;;;;5090358;28;20310;-77
2022/10/21 04:44:59;;;;;;;;;;;12.70;99.90;;;;;;5074628;28;19916;-79
2022/10/21 04:47:24;;;;;;;;;;;12.70;99.90;;;;;;5099639;28;19970;-75
2022/10/21 04:49:50;;;;;;;;;;;12.80;99.90;;;;;;5106941;28;19965;-76
2022/10/21 04:52:16;;;;;;;;;;;12.90;99.90;;;;;;5079138;28;20323;-76
2022/10/21 04:54:41;;;;;;;;;;;12.90;99.90;;;;;;5072950;28;20368;-79
2022/10/21 04:57:07;;;;;;;;;;;13.00;99.90;;;;;;5094283;28;19947;-78
2022/10/21 04:59:32;;;;;;;;;;;13.00;99.90;;;;;;5096971;28;19916;-78
2022/10/21 05:01:58;;;;;;;;;;;13.00;99.90;;;;;;5103396;28;20330;-78
2022/10/21 05:04:24;;;;;;;;;;;13.00;99.90;;;;;;5097171;28;20230;-80
2022/10/21 05:06:49;;;;;;;;;;;13.00;99.90;;;;;;5094169;28;19916;-77
2022/10/21 05:09:15;;;;;;;;;;;13.00;99.90;;;;;;5092980;28;19917;-81
2022/10/21 05:11:40;;;;;;;;;;;12.90;99.90;;;;;;5091111;28;19912;-80
2022/10/21 05:14:06;;;;;;;;;;;13.00;99.90;;;;;;5095876;28;20226;-78
2022/10/21 05:16:32;;;;;;;;;;;13.00;99.90;;;;;;5071400;28;19912;-79
2022/10/21 05:18:58;;;;;;;;;;;12.90;99.90;;;;;;5096097;28;19931;-78
2022/10/21 05:21:23;;;;;;;;;;;12.90;99.90;;;;;;5079334;28;19920;-79
2022/10/21 05:23:49;;;;;;;;;;;12.90;99.90;;;;;;5089828;28;20227;-79
2022/10/21 05:26:14;;;;;;;;;;;12.90;99.90;;;;;;5088477;28;19969;-78
2022/10/21 05:28:40;;;;;;;;;;;12.90;99.90;;;;;;5095315;28;19918;-78
2022/10/21 05:31:06;;;;;;;;;;;12.90;99.90;;;;;;5080467;28;20322;-78
2022/10/21 05:33:31;;;;;;;;;;;12.80;99.90;;;;;;5092553;28;19927;-76
2022/10/21 05:35:59;;;;;;;;;;;12.80;99.90;;;;;;5098794;28;19915;-76
2022/10/21 05:38:25;;;;;;;;;;;12.80;99.90;;;;;;5095495;28;19916;-79
2022/10/21 05:40:51;;;;;;;;;;;12.80;99.90;;;;;;5090372;28;20003;-80
2022/10/21 05:43:17;;;;;;;;;;;12.80;99.90;;;;;;5105586;28;20033;-78
2022/10/21 05:45:42;;;;;;;;;;;12.90;99.90;;;;;;5085952;28;20228;-79
2022/10/21 05:48:08;;;;;;;;;;;12.80;99.90;;;;;;5082850;28;19935;-78
2022/10/21 05:50:34;;;;;;;;;;;12.80;99.90;;;;;;5075214;28;19923;-78
2022/10/21 05:52:59;;;;;;;;;;;12.80;99.90;;;;;;5085351;28;19920;-79
2022/10/21 05:55:25;;;;;;;;;;;12.80;99.90;;;;;;5083916;28;20307;-78
2022/10/21 05:57:50;;;;;;;;;;;12.80;99.90;;;;;;5085739;28;19917;-77
2022/10/21 06:00:16;;;;;;;;;;;12.70;99.90;;;;;;5093852;28;19924;-76
2022/10/21 06:02:42;;;;;;;;;;;12.70;99.90;;;;;;5091426;28;19950;-79
2022/10/21 06:05:07;;;;;;;;;;;12.70;99.90;;;;;;5058899;28;19924;-79
2022/10/21 06:07:33;;;;;;;;;;;12.70;99.90;;;;;;5072477;28;19954;-78
2022/10/21 06:09:59;;;;;;;;;;;12.70;99.90;;;;;;5097250;28;19919;-81
2022/10/21 06:12:24;;;;;;;;;;;12.80;99.90;;;;;;5078259;28;19916;-79
2022/10/21 06:14:50;;;;;;;;;;;12.70;99.90;;;;;;5090171;28;19935;-79
2022/10/21 06:17:16;;;;;;;;;;;12.70;99.90;;;;;;5091734;28;19916;-80
2022/10/21 06:19:41;;;;;;;;;;;12.70;99.90;;;;;;5104503;28;19919;-77
2022/10/21 06:22:07;;;;;;;;;;;12.60;99.90;;;;;;5104568;28;19916;-77
2022/10/21 06:24:33;;;;;;;;;;;12.50;99.90;;;;;;5104609;28;19916;-78
2022/10/21 06:26:58;;;;;;;;;;;12.60;99.90;;;;;;5106468;28;19938;-79
2022/10/21 06:29:24;;;;;;;;;;;12.50;99.90;;;;;;5098866;28;19916;-78
2022/10/21 06:31:50;;;;;;;;;;;12.50;99.90;;;;;;5106493;28;20006;-79
2022/10/21 06:34:15;;;;;;;;;;;12.50;99.90;;;;;;5104050;28;19930;-77
2022/10/21 06:36:41;;;;;;;;;;;12.50;99.90;;;;;;5106431;28;19973;-77
2022/10/21 06:39:07;;;;;;;;;;;12.50;99.90;;;;;;5074936;28;20298;-75
2022/10/21 06:41:33;;;;;;;;;;;12.50;99.90;;;;;;5088611;28;19908;-78
2022/10/21 06:43:59;;;;;;;;;;;12.50;99.90;;;;;;5097777;28;20007;-78
2022/10/21 06:46:25;;;;;;;;;;;12.60;99.90;;;;;;5082679;28;20006;-78
2022/10/21 06:48:51;;;;;;;;;;;12.60;99.90;;;;;;5089701;28;19978;-79
2022/10/21 06:51:18;;;;;;;;;;;12.60;99.90;;;;;;5087073;28;20292;-78
2022/10/21 06:53:44;;;;;;;;;;;12.70;99.90;;;;;;5096257;28;19912;-79
2022/10/21 06:56:11;;;;;;;;;;;12.60;99.90;;;;;;5078223;28;19916;-75
2022/10/21 06:58:38;;;;;;;;;;;12.60;99.90;;;;;;5097581;28;19908;-78
2022/10/21 07:01:08;;;;;;;;;;;12.60;99.90;;;;;;5079807;28;19913;-79
2022/10/21 07:03:34;;;;;;;;;;;12.70;99.90;;;;;;5097085;28;20339;-78
2022/10/21 07:06:00;;;;;;;;;;;12.70;99.90;;;;;;5085620;28;19923;-79
2022/10/21 07:08:26;;;;;;;;;;;12.60;99.90;;;;;;5095276;28;19912;-79
2022/10/21 07:10:52;;;;;;;;;;;12.70;99.90;;;;;;5096802;28;19912;-75
2022/10/21 07:13:17;;;;;;;;;;;12.70;99.90;;;;;;5091931;28;20231;-75
2022/10/21 07:15:43;;;;;;;;;;;12.70;99.90;;;;;;5098032;28;20299;-79
2022/10/21 07:18:09;;;;;;;;;;;12.70;99.90;;;;;;5078567;28;20500;-78
2022/10/21 07:20:34;;;;;;;;;;;12.70;99.90;;;;;;5070603;28;20327;-79
2022/10/21 07:23:00;;;;;;;;;;;12.70;99.90;;;;;;5067664;28;19912;-78
2022/10/21 07:25:26;;;;;;;;;;;12.70;99.90;;;;;;5074282;28;19927;-77
2022/10/21 07:27:52;;;;;;;;;;;12.70;99.90;;;;;;5105672;28;19962;-79
2022/10/21 07:30:17;;;;;;;;;;;12.80;99.90;;;;;;5103748;28;20306;-76
2022/10/21 07:32:43;;;;;;;;;;;12.80;99.90;;;;;;5101131;28;19959;-78
2022/10/21 07:35:09;;;;;;;;;;;12.90;99.90;;;;;;5080859;28;19923;-79
2022/10/21 07:37:34;;;;;;;;;;;12.90;99.90;;;;;;5088935;28;19959;-79
2022/10/21 07:40:00;;;;;;;;;;;12.90;99.90;;;;;;5093982;28;20018;-78
2022/10/21 07:42:26;;;;;;;;;;;13.00;99.90;;;;;;5083978;28;19995;-75
2022/10/21 07:44:56;;;;;;;;;;;13.10;99.90;;;;;;5095397;28;19912;-79
2022/10/21 07:47:22;;;;;;;;;;;13.10;99.90;;;;;;5075440;28;20309;-79
2022/10/21 07:49:48;;;;;;;;;;;13.10;99.90;;;;;;5086794;28;19974;-79
2022/10/21 07:52:14;;;;;;;;;;;13.20;99.90;;;;;;5086727;28;19999;-79
2022/10/21 07:54:39;;;;;;;;;;;13.20;99.90;;;;;;5095101;28;19922;-79
2022/10/21 07:57:05;;;;;;;;;;;13.30;99.90;;;;;;5086304;28;19916;-79
2022/10/21 07:59:30;;;;;;;;;;;13.30;99.90;;;;;;5096081;28;20232;-79
2022/10/21 08:01:56;;;;;;;;;;;13.40;99.90;;;;;;5085912;28;19920;-77
2022/10/21 08:04:23;;;;;;;;;;;13.40;99.90;;;;;;5068549;28;19962;-78
2022/10/21 08:06:49;;;;;;;;;;;13.50;99.90;;;;;;5089974;28;19916;-76
2022/10/21 08:09:15;;;;;;;;;;;13.60;99.90;;;;;;5087034;28;20351;-79
2022/10/21 08:11:41;;;;;;;;;;;13.60;99.90;;;;;;5075282;28;19966;-78
2022/10/21 08:14:08;;;;;;;;;;;13.60;99.90;;;;;;5076942;28;19912;-77
2022/10/21 08:16:33;;;;;;;;;;;13.70;99.90;;;;;;5088326;28;19998;-78
2022/10/21 08:18:59;;;;;;;;;;;13.70;99.90;;;;;;5088427;28;20019;-78
2022/10/21 08:21:26;;;;;;;;;;;13.70;99.90;;;;;;5090652;28;19916;-75
2022/10/21 08:23:51;;;;;;;;;;;13.70;99.90;;;;;;5088626;28;19964;-79
2022/10/21 08:26:17;;;;;;;;;;;13.70;99.90;;;;;;5083194;28;20023;-79
2022/10/21 08:28:43;;;;;;;;;;;13.70;99.90;;;;;;5085357;28;19912;-78
2022/10/21 08:31:10;;;;;;;;;;;13.70;99.90;;;;;;5096528;28;19912;-78
2022/10/21 08:33:36;;;;;;;;;;;13.60;99.90;;;;;;5066276;28;19920;-77
2022/10/21 08:36:06;;;;;;;;;;;13.60;99.90;;;;;;5065570;28;20308;-80
2022/10/21 08:38:32;;;;;;;;;;;13.60;99.90;;;;;;5096067;28;20361;-79
2022/10/21 08:40:58;;;;;;;;;;;13.60;99.90;;;;;;5087407;28;20007;-78
2022/10/21 08:43:26;;;;;;;;;;;13.60;99.90;;;;;;5094413;28;19922;-81
2022/10/21 08:45:52;;;;;;;;;;;13.60;99.90;;;;;;5100110;28;19920;-79
2022/10/21 08:48:20;;;;;;;;;;;13.60;99.90;;;;;;5103035;28;19913;-76
2022/10/21 08:50:48;;;;;;;;;;;13.70;99.90;;;;;;5074637;28;19920;-76
2022/10/21 08:53:16;;;;;;;;;;;13.70;99.90;;;;;;5090232;28;19912;-78
2022/10/21 08:55:43;;;;;;;;;;;13.70;99.90;;;;;;5079488;28;20227;-76
2022/10/21 08:58:13;;;;;;;;;;;13.70;99.90;;;;;;5089768;28;19920;-77
2022/10/21 09:00:44;;;;;;;;;;;13.80;99.90;;;;;;5078133;28;20011;-77
2022/10/21 09:03:13;;;;;;;;;;;13.80;99.90;;;;;;5089030;28;20044;-78
2022/10/21 09:05:54;;;;;;;;;;;13.90;99.90;;;;;;5077579;28;19912;-76
2022/10/21 09:08:20;;;;;;;;;;;13.90;99.90;;;;;;5068425;28;19916;-76
2022/10/21 09:10:51;;;;;;;;;;;13.90;99.90;;;;;;5072071;28;19935;-75
2022/10/21 09:13:17;;;;;;;;;;;14.00;99.90;;;;;;5092543;28;20457;-76
2022/10/21 09:15:49;;;;;;;;;;;14.00;99.90;;;;;;5087931;28;20008;-76
2022/10/21 09:18:29;;;;;;;;;;;14.00;99.90;;;;;;5079395;28;19916;-77
2022/10/21 09:20:55;;;;;;;;;;;14.10;99.90;;;;;;5090239;28;19967;-78
2022/10/21 09:23:39;;;;;;;;;;;14.10;99.90;;;;;;5090516;28;19959;-76
2022/10/21 09:26:07;;;;;;;;;;;14.20;99.90;;;;;;5078899;28;20185;-78
2022/10/21 09:28:33;;;;;;;;;;;14.20;99.90;;;;;;5097245;28;20207;-77
2022/10/21 09:31:01;;;;;;;;;;;14.30;99.90;;;;;;5073140;28;19927;-77
2022/10/21 09:33:28;;;;;;;;;;;14.30;99.90;;;;;;5096406;28;19920;-78
2022/10/21 09:36:00;;;;;;;;;;;14.30;99.90;;;;;;5075483;28;19916;-78
2022/10/21 09:38:32;;;;;;;;;;;14.40;99.90;;;;;;5082977;28;19959;-78
2022/10/21 09:41:02;;;;;;;;;;;14.40;99.90;;;;;;5097227;28;19924;-77
2022/10/21 09:43:28;;;;;;;;;;;14.40;99.90;;;;;;5089949;28;19912;-78
2022/10/21 09:45:54;;;;;;;;;;;14.40;99.90;;;;;;5088004;28;20506;-77
2022/10/21 09:48:26;;;;;;;;;;;14.50;99.90;;;;;;5094760;28;19919;-78
2022/10/21 09:50:53;;;;;;;;;;;14.50;99.90;;;;;;5097766;28;19957;-77
2022/10/21 09:53:21;;;;;;;;;;;14.50;99.90;;;;;;5095806;28;19963;-76
2022/10/21 09:55:48;;;;;;;;;;;14.50;99.90;;;;;;5097266;28;19927;-77
2022/10/21 09:58:25;;;;;;;;;;;14.60;99.90;;;;;;5089482;28;20208;-78
2022/10/21 10:00:51;;;;;;;;;;;14.60;99.90;;;;;;5097314;28;19922;-76
2022/10/21 10:03:32;;;;;;;;;;;14.60;99.90;;;;;;5093353;28;19965;-78
2022/10/21 10:05:57;;;;;;;;;;;14.60;99.90;;;;;;5092128;28;20360;-78
2022/10/21 10:08:26;;;;;;;;;;;14.60;99.90;;;;;;5072421;28;19995;-76
2022/10/21 10:11:00;;;;;;;;;;;14.70;99.90;;;;;;5085346;28;20188;-76
2022/10/21 10:13:27;;;;;;;;;;;14.80;99.90;;;;;;5082175;28;20323;-76
2022/10/21 10:15:53;;;;;;;;;;;14.80;99.90;;;;;;5078117;28;19912;-77
2022/10/21 10:18:22;;;;;;;;;;;14.90;99.90;;;;;;5099199;28;19935;-77
2022/10/21 10:21:08;;;;;;;;;;;15.00;99.90;;;;;;5077484;28;19916;-77
2022/10/21 10:23:41;;;;;;;;;;;15.10;99.90;;;;;;5092018;28;19913;-77
2022/10/21 10:26:07;;;;;;;;;;;15.30;99.90;;;;;;5096005;28;20015;-77
2022/10/21 10:28:33;;;;;;;;;;;15.40;99.90;;;;;;5093886;28;20002;-77
2022/10/21 10:30:58;;;;;;;;;;;15.50;99.90;;;;;;5097287;28;19912;-77
2022/10/21 10:33:33;;;;;;;;;;;15.50;99.90;;;;;;5068438;28;19920;-78
2022/10/21 10:36:00;;;;;;;;;;;15.60;99.90;;;;;;5069080;28;20031;-77
2022/10/21 10:38:28;;;;;;;;;;;15.70;99.90;;;;;;5070145;28;20019;-77
2022/10/21 10:41:01;;;;;;;;;;;15.80;99.90;;;;;;5065341;28;19999;-76
2022/10/21 10:43:29;;;;;;;;;;;15.80;99.90;;;;;;5071738;28;19912;-77
2022/10/21 10:45:59;;;;;;;;;;;15.90;99.90;;;;;;5074652;28;19924;-79
2022/10/21 10:48:36;;;;;;;;;;;16.00;99.90;;;;;;5076084;28;20211;-78
2022/10/21 10:51:05;;;;;;;;;;;16.10;99.90;;;;;;5075916;28;20307;-79
2022/10/21 10:53:32;;;;;;;;;;;16.10;99.90;;;;;;5068590;28;20257;-77
2022/10/21 10:56:02;;;;;;;;;;;16.20;99.90;;;;;;5085419;28;19923;-77
2022/10/21 10:58:30;;;;;;;;;;;16.30;99.90;;;;;;5081697;28;19919;-77
2022/10/21 11:00:58;;;;;;;;;;;16.30;99.90;;;;;;5068898;28;19927;-78
2022/10/21 11:03:43;;;;;;;;;;;16.40;99.90;;;;;;5059036;28;20651;-80
2022/10/21 11:06:16;;;;;;;;;;;16.40;99.90;;;;;;5072582;28;19947;-77
2022/10/21 11:08:48;;;;;;;;;;;16.40;99.90;;;;;;5084090;28;19912;-77
2022/10/21 11:11:23;;;;;;;;;;;16.40;99.90;;;;;;5083095;28;20212;-77
2022/10/21 11:13:50;;;;;;;;;;;16.40;99.90;;;;;;5066817;28;20009;-77
2022/10/21 11:16:21;;;;;;;;;;;16.60;99.90;;;;;;5069556;28;19969;-78
2022/10/21 11:18:53;;;;;;;;;;;16.80;99.90;;;;;;5070092;28;19958;-78
2022/10/21 11:21:29;;;;;;;;;;;17.00;99.90;;;;;;5070524;28;19912;-77
2022/10/21 11:24:04;;;;;;;;;;;17.20;99.90;;;;;;5065506;28;20254;-77
2022/10/21 11:26:51;;;;;;;;;;;17.40;99.90;;;;;;5072568;28;19916;-77
2022/10/21 11:29:23;;;;;;;;;;;17.50;99.90;;;;;;5065104;28;19920;-75
2022/10/21 11:31:59;;;;;;;;;;;17.60;99.90;;;;;;5072578;28;19939;-76
2022/10/21 11:34:54;;;;;;;;;;;17.70;99.90;;;;;;5063571;28;19946;-76
2022/10/21 11:37:25;;;;;;;;;;;17.70;99.90;;;;;;5060759;28;20044;-77
2022/10/21 11:40:02;;;;;;;;;;;17.80;99.90;;;;;;5081570;28;20266;-76
2022/10/21 11:42:47;;;;;;;;;;;17.80;99.90;;;;;;5077855;28;20673;-76
2022/10/21 11:45:32;;;;;;;;;;;17.90;99.90;;;;;;5065941;28;20207;-76
2022/10/21 11:48:16;;;;;;;;;;;17.80;99.90;;;;;;5063621;28;19965;-76
2022/10/21 11:50:48;;;;;;;;;;;17.90;99.90;;;;;;5064574;28;19913;-77
2022/10/21 11:53:22;;;;;;;;;;;17.80;99.90;;;;;;5066795;28;20377;-77
2022/10/21 11:56:07;;;;;;;;;;;17.80;99.90;;;;;;5072962;28;19912;-78
2022/10/21 11:58:51;;;;;;;;;;;17.90;99.90;;;;;;5071308;28;19917;-78
2022/10/21 12:01:32;;;;;;;;;;;17.90;99.90;;;;;;5070933;28;20335;-77
2022/10/21 12:04:13;;;;;;;;;;;17.90;99.90;;;;;;5064604;28;19939;-77
2022/10/21 12:06:59;;;;;;;;;;;17.90;99.90;;;;;;5071963;28;19998;-77
2022/10/21 12:09:47;;;;;;;;;;;17.90;99.90;;;;;;5058430;28;20011;-78
2022/10/21 12:12:17;;;;;;;;;;;18.00;99.90;;;;;;5071255;28;19916;-77
2022/10/21 12:14:52;;;;;;;;;;;18.10;99.90;;;;;;5080049;28;19912;-77
2022/10/21 12:17:20;;;;;;;;;;;18.10;99.90;;;;;;5070059;28;19913;-76
2022/10/21 12:19:51;;;;;;;;;;;18.20;99.90;;;;;;5068466;28;19916;-78
2022/10/21 12:22:17;;;;;;;;;;;18.10;99.90;;;;;;5066541;28;19916;-78
2022/10/21 12:24:59;;;;;;;;;;;18.20;99.90;;;;;;5072437;28;20299;-76
2022/10/21 12:27:33;;;;;;;;;;;18.20;99.90;;;;;;5075132;28;20287;-77
2022/10/21 12:30:01;;;;;;;;;;;18.20;99.90;;;;;;5068427;28;19919;-76
2022/10/21 12:32:38;;;;;;;;;;;18.10;99.90;;;;;;5077808;28;20002;-77
2022/10/21 12:35:05;;;;;;;;;;;18.10;99.90;;;;;;5088176;28;20358;-77
2022/10/21 12:37:53;;;;;;;;;;;18.10;99.90;;;;;;5065609;28;19951;-76
2022/10/21 12:40:25;;;;;;;;;;;18.10;99.90;;;;;;5087410;28;19927;-77
2022/10/21 12:42:59;;;;;;;;;;;18.10;99.90;;;;;;5098148;28;19947;-77
2022/10/21 12:45:29;;;;;;;;;;;18.00;99.90;;;;;;5090156;28;19922;-76
2022/10/21 12:47:55;;;;;;;;;;;18.00;99.90;;;;;;5080761;28;19927;-77
2022/10/21 12:50:33;;;;;;;;;;;18.00;99.90;;;;;;5087443;28;20310;-79
2022/10/21 12:53:17;;;;;;;;;;;17.90;99.90;;;;;;5098357;28;19924;-77
2022/10/21 12:55:47;;;;;;;;;;;17.90;99.90;;;;;;5102905;28;19920;-76
2022/10/21 12:58:19;;;;;;;;;;;17.90;99.90;;;;;;5075288;28;20299;-76
2022/10/21 13:00:50;;;;;;;;;;;17.90;99.90;;;;;;5091512;28;19924;-77
2022/10/21 13:03:20;;;;;;;;;;;17.90;99.90;;;;;;5093491;28;20011;-75
2022/10/21 13:05:46;;;;;;;;;;;18.00;99.90;;;;;;5099669;28;19959;-77
2022/10/21 13:08:18;;;;;;;;;;;18.00;99.90;;;;;;5071589;28;20005;-77
2022/10/21 13:11:05;;;;;;;;;;;18.10;99.90;;;;;;5081860;28;19919;-78
2022/10/21 13:13:34;;;;;;;;;;;18.10;99.90;;;;;;5100036;28;20290;-77
2022/10/21 13:16:20;;;;;;;;;;;18.10;99.90;;;;;;5093074;28;19919;-77
2022/10/21 13:19:25;;;;;;;;;;;18.20;99.90;;;;;;5092709;28;19923;-77
2022/10/21 13:22:00;;;;;;;;;;;18.20;99.90;;;;;;5073717;28;19962;-78
2022/10/21 13:24:29;;;;;;;;;;;18.30;99.90;;;;;;5080525;28;20303;-78
2022/10/21 13:26:56;;;;;;;;;;;18.40;99.90;;;;;;5076720;28;19923;-77
2022/10/21 13:29:31;;;;;;;;;;;18.50;99.90;;;;;;5102029;28;19912;-77
2022/10/21 13:32:17;;;;;;;;;;;18.50;99.90;;;;;;5087528;28;19940;-78
2022/10/21 13:34:49;;;;;;;;;;;18.60;99.90;;;;;;5084268;28;19962;-78
2022/10/21 13:37:22;;;;;;;;;;;18.70;99.90;;;;;;5091320;28;19919;-77
2022/10/21 13:39:50;;;;;;;;;;;18.90;99.90;;;;;;5096192;28;20011;-77
2022/10/21 13:42:17;;;;;;;;;;;19.20;99.90;;;;;;5085087;28;19959;-78
2022/10/21 13:44:49;;;;;;;;;;;19.50;99.90;;;;;;5108404;28;19919;-77
2022/10/21 13:47:19;;;;;;;;;;;19.80;99.90;;;;;;5103090;28;19927;-76
2022/10/21 13:49:49;;;;;;;;;;;20.10;99.90;;;;;;5100716;28;19916;-78
2022/10/21 13:52:15;;;;;;;;;;;20.10;99.90;;;;;;5071419;28;19993;-76
2022/10/21 13:54:41;;;;;;;;;;;20.20;99.90;;;;;;5098824;28;20671;-76
2022/10/21 13:57:07;;;;;;;;;;;20.20;99.90;;;;;;5076015;28;19924;-77
2022/10/21 13:59:33;;;;;;;;;;;20.10;99.90;;;;;;5091564;28;19966;-78
2022/10/21 14:01:59;;;;;;;;;;;20.00;99.90;;;;;;5072746;28;20535;-77
2022/10/21 14:04:26;;;;;;;;;;;20.00;99.90;;;;;;5090933;28;19918;-77
2022/10/21 14:06:59;;;;;;;;;;;19.90;99.90;;;;;;5089618;28;20129;-76
2022/10/21 14:09:39;;;;;;;;;;;19.90;99.90;;;;;;5068271;28;20196;-77
2022/10/21 14:12:06;;;;;;;;;;;19.90;99.90;;;;;;5088835;28;19923;-77
2022/10/21 14:14:35;;;;;;;;;;;19.80;99.90;;;;;;5095018;28;19923;-76
2022/10/21 14:17:04;;;;;;;;;;;19.80;99.90;;;;;;5093866;28;19919;-75
2022/10/21 14:19:31;;;;;;;;;;;19.70;99.90;;;;;;5087484;28;19927;-75
2022/10/21 14:21:58;;;;;;;;;;;19.60;99.90;;;;;;5097212;28;19915;-77
2022/10/21 14:24:23;;;;;;;;;;;19.50;99.90;;;;;;5098376;28;20348;-77